Time;durP1;ratioP1;P1;durP2;ratioP2;P2;SDS_P1;SDS_P2;PMS_P1;PMS_P2;Temp;Humidity;BMP_temperature;BMP_pressure;BME280_temperature;BME280_humidity;BME280_pressure;Samples;Min_cycle;Max_cycle;Signal;HPM_P1;HPM_P2
2022/02/08 00:00:54;;;;;;;4.10;2.17;;;5.40;99.90;;;;;;6275673;28;20470;-66
2022/02/08 00:03:57;;;;;;;4.70;2.70;;;5.40;99.90;;;;;;6275350;28;20535;-66
2022/02/08 00:07:03;;;;;;;4.40;4.00;;;5.40;99.90;;;;;;6275050;28;20474;-66
2022/02/08 00:10:06;;;;;;;2.47;2.27;;;5.40;99.90;;;;;;6275163;28;20462;-67
2022/02/08 00:13:10;;;;;;;3.77;2.07;;;5.30;99.90;;;;;;6274399;28;20789;-66
2022/02/08 00:16:14;;;;;;;4.07;2.20;;;5.30;99.90;;;;;;6274679;28;20470;-66
2022/02/08 00:19:17;;;;;;;4.53;2.20;;;5.20;99.90;;;;;;6274537;28;20474;-66
2022/02/08 00:22:20;;;;;;;5.27;2.37;;;5.10;99.90;;;;;;6274132;28;20474;-66
2022/02/08 00:25:24;;;;;;;2.60;1.90;;;5.00;99.90;;;;;;6274609;28;20466;-66
2022/02/08 00:28:27;;;;;;;6.17;2.20;;;5.00;99.90;;;;;;6274923;28;20466;-64
2022/02/08 00:31:31;;;;;;;2.77;1.80;;;4.90;99.90;;;;;;6274283;28;20982;-64
2022/02/08 00:34:34;;;;;;;2.20;2.00;;;4.80;99.90;;;;;;6274077;28;20836;-64
2022/02/08 00:37:37;;;;;;;2.60;2.33;;;4.60;99.90;;;;;;6274725;28;20481;-64
2022/02/08 00:40:41;;;;;;;3.23;2.27;;;4.50;99.90;;;;;;6274499;28;20466;-63
2022/02/08 00:43:51;;;;;;;3.77;2.20;;;4.30;99.90;;;;;;6274562;28;20478;-64
2022/02/08 00:47:01;;;;;;;3.33;3.00;;;4.30;99.90;;;;;;6274122;28;20467;-63
2022/02/08 00:50:07;;;;;;;3.40;2.73;;;4.30;99.90;;;;;;6274781;28;20965;-63
2022/02/08 00:53:10;;;;;;;3.60;3.00;;;4.20;99.90;;;;;;6274665;28;20470;-63
2022/02/08 00:56:13;;;;;;;3.20;2.47;;;4.20;99.90;;;;;;6274363;28;20574;-63
2022/02/08 00:59:17;;;;;;;4.10;3.10;;;4.20;99.90;;;;;;6273768;28;20977;-63
2022/02/08 01:02:22;;;;;;;2.70;2.50;;;4.20;99.90;;;;;;6273678;28;20489;-63
2022/02/08 01:05:26;;;;;;;6.90;2.77;;;4.10;99.90;;;;;;6271387;28;20535;-63
2022/02/08 01:08:31;;;;;;;2.33;2.10;;;4.10;99.90;;;;;;6273775;28;20473;-63
2022/02/08 01:11:34;;;;;;;3.67;2.77;;;4.10;99.90;;;;;;6273686;28;20946;-64
2022/02/08 01:14:40;;;;;;;3.77;2.63;;;4.10;99.90;;;;;;6273975;28;20481;-64
2022/02/08 01:17:47;;;;;;;3.07;2.20;;;4.10;99.90;;;;;;6274179;28;20442;-64
2022/02/08 01:20:51;;;;;;;5.33;2.60;;;4.10;99.90;;;;;;6274480;28;20431;-64
2022/02/08 01:23:54;;;;;;;2.93;2.40;;;4.10;99.90;;;;;;6275556;28;20482;-64
2022/02/08 01:27:03;;;;;;;3.10;2.00;;;4.10;99.90;;;;;;6279038;28;20808;-64
2022/02/08 01:30:14;;;;;;;2.10;1.90;;;4.10;99.90;;;;;;6279004;28;20478;-64
2022/02/08 01:33:39;;;;;;;2.30;1.70;;;3.90;99.90;;;;;;6278518;28;20527;-63
2022/02/08 01:37:01;;;;;;;1.97;1.87;;;3.80;99.90;;;;;;6278939;28;20477;-63
2022/02/08 01:40:10;;;;;;;1.60;1.50;;;3.80;99.90;;;;;;6278542;28;20474;-64
2022/02/08 01:46:48;;;;;;;2.07;1.70;;;3.70;99.90;;;;;;6277403;28;20497;-64
2022/02/08 01:53:12;;;;;;;1.70;1.60;;;3.80;99.90;;;;;;6278497;28;20474;-63
2022/02/08 01:56:16;;;;;;;2.57;2.37;;;3.90;99.90;;;;;;6278071;28;20999;-64
2022/02/08 01:59:19;;;;;;;2.13;1.93;;;3.90;99.90;;;;;;6278155;28;20484;-64
2022/02/08 02:02:22;;;;;;;2.30;1.83;;;4.00;99.90;;;;;;6277713;28;20485;-64
2022/02/08 02:05:27;;;;;;;7.60;2.30;;;3.90;99.90;;;;;;6273992;28;20547;-64
2022/02/08 02:08:30;;;;;;;2.67;2.33;;;3.90;99.90;;;;;;6277242;28;20807;-65
2022/02/08 02:11:33;;;;;;;1.80;1.70;;;3.90;99.90;;;;;;6277771;28;20485;-64
2022/02/08 02:14:37;;;;;;;2.73;1.80;;;4.00;99.90;;;;;;6277385;28;20465;-64
2022/02/08 02:17:40;;;;;;;2.67;2.40;;;3.90;99.90;;;;;;6277768;28;20467;-64
2022/02/08 02:20:45;;;;;;;2.00;1.53;;;4.00;99.90;;;;;;6277606;28;20446;-64
2022/02/08 02:23:51;;;;;;;2.70;1.57;;;4.00;99.90;;;;;;6277351;28;20991;-64
2022/02/08 02:26:56;;;;;;;2.17;1.70;;;4.00;99.90;;;;;;6277132;28;20446;-64
2022/02/08 02:29:59;;;;;;;3.40;1.97;;;4.00;99.90;;;;;;6276998;28;20480;-64
2022/02/08 02:33:04;;;;;;;5.00;2.50;;;4.00;99.90;;;;;;6276300;28;20974;-64
2022/02/08 02:36:07;;;;;;;6.13;1.83;;;4.00;99.90;;;;;;6276054;28;20462;-64
2022/02/08 02:39:12;;;;;;;1.80;1.63;;;4.10;99.90;;;;;;6276898;28;20965;-64
2022/02/08 02:42:18;;;;;;;2.37;1.47;;;4.00;99.90;;;;;;6276988;28;20536;-64
2022/02/08 02:45:22;;;;;;;2.37;1.20;;;4.00;99.90;;;;;;6277024;28;20466;-64
2022/02/08 02:48:25;;;;;;;3.13;2.20;;;4.00;99.90;;;;;;6276911;28;20470;-64
2022/02/08 02:51:29;;;;;;;4.73;1.80;;;3.90;99.90;;;;;;6277179;28;20470;-64
2022/02/08 02:54:34;;;;;;;1.53;1.43;;;3.90;99.90;;;;;;6276466;28;20474;-64
2022/02/08 02:57:37;;;;;;;2.80;2.60;;;3.80;99.90;;;;;;6276416;28;20961;-64
2022/02/08 03:00:46;;;;;;;2.47;2.07;;;3.80;99.90;;;;;;6276153;28;20470;-64
2022/02/08 03:04:08;;;;;;;2.83;2.30;;;3.80;99.90;;;;;;6276621;28;20561;-64
2022/02/08 03:20:35;;;;;;;2.20;2.10;;;3.70;99.90;;;;;;6276179;28;20481;-64
2022/02/08 03:23:40;;;;;;;2.30;2.10;;;3.70;99.90;;;;;;6275806;28;20540;-64
2022/02/08 03:26:45;;;;;;;5.40;1.97;;;3.70;99.90;;;;;;6276083;28;20849;-64
2022/02/08 03:29:48;;;;;;;2.50;1.60;;;3.60;99.90;;;;;;6276043;28;20447;-64
2022/02/08 03:32:51;;;;;;;2.70;2.17;;;3.60;99.90;;;;;;6275804;28;20830;-63
2022/02/08 03:35:55;;;;;;;2.93;1.73;;;3.60;99.90;;;;;;6276428;28;20438;-64
2022/02/08 03:39:13;;;;;;;3.60;2.30;;;3.60;99.90;;;;;;6276091;28;20453;-64
2022/02/08 03:42:20;;;;;;;2.00;1.50;;;3.60;99.90;;;;;;6275834;28;20474;-64
2022/02/08 03:45:24;;;;;;;2.13;1.60;;;3.50;99.90;;;;;;6276327;28;20482;-64
2022/02/08 03:48:30;;;;;;;2.23;1.87;;;3.40;99.90;;;;;;6275411;28;20867;-64
2022/02/08 03:51:46;;;;;;;2.20;2.00;;;3.40;99.90;;;;;;6276414;28;20539;-64
2022/02/08 03:54:50;;;;;;;2.37;2.00;;;3.40;99.90;;;;;;6275721;28;20772;-64
2022/02/08 03:57:54;;;;;;;2.13;1.93;;;3.30;99.90;;;;;;6275624;28;20478;-64
2022/02/08 04:01:23;;;;;;;2.30;2.20;;;3.30;99.90;;;;;;6275369;28;20497;-64
2022/02/08 04:04:32;;;;;;;3.00;1.80;;;3.40;99.90;;;;;;6275512;28;20504;-64
2022/02/08 04:07:39;;;;;;;2.90;2.50;;;3.30;99.90;;;;;;6275354;28;20768;-64
2022/02/08 04:10:43;;;;;;;1.63;1.53;;;3.30;99.90;;;;;;6275436;28;20558;-64
2022/02/08 04:13:56;;;;;;;3.10;2.30;;;3.30;99.90;;;;;;6270628;28;20796;-64
2022/02/08 04:17:08;;;;;;;2.13;2.03;;;3.30;99.90;;;;;;6275243;28;20466;-63
2022/02/08 04:31:25;;;;;;;4.40;2.93;;;3.30;99.90;;;;;;6275459;28;21101;-64
2022/02/08 04:34:23;;;;;;;4.23;2.43;;;3.10;99.90;;;;;;6223289;28;20465;-64
2022/02/08 04:44:18;;;;;;;4.97;3.53;;;3.00;99.90;;;;;;6274683;28;20478;-64
2022/02/08 04:47:28;;;;;;;4.33;2.20;;;3.00;99.90;;;;;;6274541;28;20576;-65
2022/02/08 04:50:33;;;;;;;1.87;1.77;;;2.90;99.90;;;;;;6275465;28;20473;-65
2022/02/08 04:53:42;;;;;;;1.60;1.50;;;2.90;99.90;;;;;;6274790;28;20504;-65
2022/02/08 04:57:02;;;;;;;2.20;1.50;;;2.90;99.90;;;;;;6275257;28;20469;-65
2022/02/08 05:00:20;;;;;;;1.30;1.20;;;3.00;99.90;;;;;;6278624;28;20470;-65
2022/02/08 05:27:20;;;;;;;2.83;1.80;;;3.40;98.60;;;;;;6279433;28;20477;-65
2022/02/08 05:44:29;;;;;;;3.63;2.20;;;3.30;99.10;;;;;;6242078;28;20478;-64
2022/02/08 05:47:39;;;;;;;4.50;2.23;;;3.20;99.30;;;;;;6278704;28;20531;-64
2022/02/08 05:50:55;;;;;;;5.10;2.37;;;3.30;99.40;;;;;;6278768;28;20446;-64
2022/02/08 05:54:00;;;;;;;2.83;2.60;;;3.30;99.40;;;;;;6278648;28;20465;-64
2022/02/08 05:57:03;;;;;;;4.57;3.37;;;3.30;99.50;;;;;;6278558;28;20466;-64
2022/02/08 06:00:09;;;;;;;3.50;3.20;;;3.20;99.40;;;;;;6278318;28;20469;-64
2022/02/08 06:03:12;;;;;;;4.90;2.70;;;3.10;99.70;;;;;;6278291;28;20466;-63
2022/02/08 06:06:15;;;;;;;2.20;2.00;;;3.10;99.70;;;;;;6277986;28;20465;-63
2022/02/08 06:09:20;;;;;;;5.43;2.40;;;3.00;99.70;;;;;;6277826;28;20973;-64
2022/02/08 06:12:25;;;;;;;2.70;2.50;;;3.00;99.90;;;;;;6278160;28;20616;-65
2022/02/08 06:15:29;;;;;;;2.30;2.10;;;3.00;99.90;;;;;;6278053;28;20474;-63
2022/02/08 06:18:32;;;;;;;2.50;2.37;;;3.00;99.90;;;;;;6269222;28;20482;-63
2022/02/08 06:21:35;;;;;;;3.43;2.87;;;3.00;99.90;;;;;;6277347;28;20965;-65
2022/02/08 06:24:40;;;;;;;4.70;2.60;;;3.00;99.90;;;;;;6277626;28;20473;-65
2022/02/08 06:27:45;;;;;;;2.57;2.43;;;3.00;99.90;;;;;;6277952;28;20531;-65
2022/02/08 06:30:48;;;;;;;5.13;3.00;;;3.00;99.90;;;;;;6277977;28;20477;-63
2022/02/08 06:33:51;;;;;;;2.53;2.33;;;2.90;99.90;;;;;;6277124;28;20988;-62
2022/02/08 06:37:00;;;;;;;5.33;2.43;;;2.90;99.90;;;;;;6277102;28;20806;-63
2022/02/08 06:40:06;;;;;;;3.00;2.53;;;2.90;99.90;;;;;;6277124;28;20487;-63
2022/02/08 06:43:09;;;;;;;3.60;3.03;;;2.90;99.90;;;;;;6276853;28;20474;-63
2022/02/08 06:46:12;;;;;;;4.70;3.07;;;2.80;99.90;;;;;;6276748;28;20948;-63
2022/02/08 06:49:16;;;;;;;4.93;2.60;;;2.80;99.90;;;;;;6277309;28;20477;-63
2022/02/08 06:52:20;;;;;;;2.67;2.47;;;2.80;99.90;;;;;;6277171;28;20482;-64
2022/02/08 06:55:26;;;;;;;4.67;3.20;;;2.90;99.90;;;;;;6276971;28;20535;-64
2022/02/08 06:58:36;;;;;;;6.03;3.40;;;2.80;99.90;;;;;;6276443;28;20466;-64
2022/02/08 07:01:39;;;;;;;4.40;2.95;;;2.90;99.90;;;;;;6276686;28;20914;-65
2022/02/08 07:04:42;;;;;;;11.03;5.67;;;2.90;99.90;;;;;;6276835;28;20699;-66
2022/02/08 07:07:45;;;;;;;6.27;5.50;;;2.90;99.90;;;;;;6277379;28;20783;-66
2022/02/08 07:10:50;;;;;;;4.50;3.67;;;2.90;99.90;;;;;;6276561;28;20474;-66
2022/02/08 07:13:54;;;;;;;5.83;5.07;;;2.90;99.90;;;;;;6277386;28;20836;-66
2022/02/08 07:16:57;;;;;;;5.50;4.00;;;3.00;99.90;;;;;;6277043;28;20477;-66
2022/02/08 07:20:00;;;;;;;9.07;5.70;;;3.00;99.90;;;;;;6276717;28;20477;-66
2022/02/08 07:23:03;;;;;;;12.77;8.30;;;3.00;99.90;;;;;;6275409;28;20479;-65
2022/02/08 07:26:11;;;;;;;21.70;12.10;;;3.00;99.90;;;;;;6275816;28;20508;-65
2022/02/08 07:29:14;;;;;;;17.23;10.50;;;3.10;99.90;;;;;;6275438;28;20466;-66
2022/02/08 07:32:18;;;;;;;16.10;9.70;;;3.10;99.90;;;;;;6272703;28;20511;-66
2022/02/08 07:35:28;;;;;;;20.70;9.93;;;3.20;99.90;;;;;;6271983;28;20464;-66
2022/02/08 07:38:36;;;;;;;10.07;6.77;;;3.30;99.90;;;;;;6256423;28;20478;-65
2022/02/08 07:41:42;;;;;;;8.13;5.53;;;3.30;99.90;;;;;;6261364;28;20474;-64
2022/02/08 07:44:47;;;;;;;7.77;5.30;;;3.40;99.90;;;;;;6264391;28;20463;-65
2022/02/08 07:47:51;;;;;;;36.40;15.50;;;3.50;99.50;;;;;;6274758;28;20482;-65
2022/02/08 07:50:55;;;;;;;14.40;7.17;;;3.60;99.20;;;;;;6274651;28;20461;-65
2022/02/08 07:53:59;;;;;;;6.90;5.53;;;3.70;99.00;;;;;;6275221;28;20485;-66
2022/02/08 07:57:04;;;;;;;10.57;5.07;;;3.80;98.70;;;;;;6275463;28;20466;-66
2022/02/08 08:00:08;;;;;;;6.90;5.10;;;3.90;98.40;;;;;;6275386;28;20478;-66
2022/02/08 08:03:11;;;;;;;7.03;5.63;;;4.00;98.20;;;;;;6275218;28;20473;-65
2022/02/08 08:06:17;;;;;;;8.23;4.60;;;4.20;98.10;;;;;;6284250;28;20469;-63
2022/02/08 08:09:20;;;;;;;5.90;4.97;;;4.50;98.40;;;;;;6300254;28;20465;-63
2022/02/08 08:12:24;;;;;;;5.73;4.03;;;4.80;98.50;;;;;;6292367;28;20485;-63
2022/02/08 08:15:37;;;;;;;5.07;4.57;;;5.10;97.50;;;;;;6275450;28;20458;-65
2022/02/08 08:18:56;;;;;;;4.23;3.43;;;5.50;97.30;;;;;;6274737;28;20535;-66
2022/02/08 08:21:59;;;;;;;4.43;3.50;;;5.90;96.50;;;;;;6274851;28;20793;-66
2022/02/08 08:25:05;;;;;;;4.27;3.20;;;6.30;95.50;;;;;;6270757;28;20488;-64
2022/02/08 08:28:10;;;;;;;6.30;3.53;;;6.50;94.70;;;;;;6274701;28;20466;-64
2022/02/08 08:31:14;;;;;;;3.63;3.33;;;6.70;94.10;;;;;;6274796;28;20470;-64
2022/02/08 08:34:38;;;;;;;3.33;3.03;;;6.80;93.50;;;;;;6273841;28;20830;-64
2022/02/08 08:37:43;;;;;;;4.23;3.20;;;6.90;92.40;;;;;;6274843;28;20485;-66
2022/02/08 08:40:56;;;;;;;6.40;3.53;;;6.90;91.60;;;;;;6275066;28;20466;-66
2022/02/08 08:51:04;;;;;;;7.50;5.80;;;7.00;90.60;;;;;;6274580;28;20458;-66
2022/02/08 08:54:08;;;;;;;7.90;4.83;;;6.70;89.80;;;;;;6274582;28;20493;-66
2022/02/08 08:57:11;;;;;;;8.07;5.90;;;6.60;90.90;;;;;;6274452;28;20466;-66
2022/02/08 09:00:16;;;;;;;6.20;5.30;;;6.60;91.10;;;;;;6274024;28;20814;-66
2022/02/08 09:03:19;;;;;;;10.57;6.00;;;6.70;90.60;;;;;;6273481;28;20814;-66
2022/02/08 09:06:23;;;;;;;8.77;5.77;;;6.80;88.60;;;;;;6267998;28;20750;-66
2022/02/08 09:09:28;;;;;;;11.80;7.00;;;7.00;88.50;;;;;;6274277;28;20485;-66
2022/02/08 09:12:54;;;;;;;7.53;6.50;;;7.20;87.30;;;;;;6273779;28;20470;-65
2022/02/08 09:16:06;;;;;;;9.70;8.40;;;7.60;86.00;;;;;;6274179;28;20463;-65
2022/02/08 09:25:56;;;;;;;8.47;4.20;;;8.40;78.30;;;;;;6260999;28;20481;-65
2022/02/08 09:29:05;;;;;;;5.53;3.17;;;8.50;74.10;;;;;;6273470;28;20466;-66
2022/02/08 09:32:18;;;;;;;3.87;1.97;;;8.70;71.60;;;;;;6273717;28;20478;-65
2022/02/08 09:35:22;;;;;;;1.33;1.00;;;9.10;61.40;;;;;;6275715;28;20795;-65
2022/02/08 09:38:29;;;;;;;1.90;1.20;;;10.10;53.20;;;;;;6276449;28;20486;-65
2022/02/08 09:41:35;;;;;;;2.50;2.37;;;10.10;50.00;;;;;;6275266;28;20482;-65
2022/02/08 09:44:39;;;;;;;3.17;2.07;;;10.00;49.10;;;;;;6268233;28;20481;-65
2022/02/08 09:47:53;;;;;;;2.07;1.53;;;9.90;50.60;;;;;;6254463;28;20567;-66
2022/02/08 09:50:56;;;;;;;2.40;1.10;;;10.00;49.10;;;;;;6278607;28;20418;-67
2022/02/08 09:54:02;;;;;;;3.30;1.27;;;13.00;47.40;;;;;;6278166;28;20462;-68
2022/02/08 09:57:06;;;;;;;1.43;0.90;;;17.70;39.20;;;;;;6278172;28;20949;-68
2022/02/08 10:00:10;;;;;;;5.10;1.10;;;21.90;29.70;;;;;;6278135;28;20479;-68
2022/02/08 10:03:17;;;;;;;3.97;1.33;;;25.00;25.70;;;;;;6277881;28;20226;-68
2022/02/08 10:06:23;;;;;;;1.70;0.87;;;28.10;21.70;;;;;;6277481;28;20571;-68
2022/02/08 10:09:33;;;;;;;1.73;0.90;;;29.60;19.20;;;;;;6278214;28;20227;-67
2022/02/08 10:12:59;;;;;;;0.93;0.60;;;31.00;18.30;;;;;;6277402;28;20251;-69
2022/02/08 10:22:50;;;;;;;2.17;1.00;;;33.80;15.20;;;;;;6278211;28;20236;-69
2022/02/08 10:26:06;;;;;;;2.90;0.90;;;32.90;15.20;;;;;;6277746;28;20235;-68
2022/02/08 10:29:15;;;;;;;1.95;0.80;;;33.30;15.10;;;;;;6277852;28;20235;-68
2022/02/08 10:39:18;;;;;;;3.00;0.70;;;32.10;14.50;;;;;;6273556;28;20694;-68
2022/02/08 10:42:21;;;;;;;3.33;0.97;;;27.70;16.40;;;;;;6251827;28;20366;-65
2022/02/08 10:45:28;;;;;;;1.50;1.10;;;24.10;18.60;;;;;;6253039;28;20250;-67
2022/02/08 10:48:32;;;;;;;1.20;0.60;;;23.50;19.90;;;;;;6252515;28;20239;-65
2022/02/08 10:51:44;;;;;;;1.73;0.77;;;22.20;20.20;;;;;;6252454;28;20239;-65
2022/02/08 10:54:49;;;;;;;3.17;0.60;;;20.70;21.30;;;;;;6252689;28;20234;-67
2022/02/08 10:58:00;;;;;;;1.50;0.60;;;20.50;22.30;;;;;;6251448;28;20254;-68
2022/02/08 11:01:08;;;;;;;1.17;0.80;;;23.70;21.50;;;;;;6252083;28;20240;-67
2022/02/08 11:04:18;;;;;;;2.20;0.70;;;27.90;18.90;;;;;;6259598;23;20248;-67
2022/02/08 11:07:47;;;;;;;2.13;0.80;;;30.00;16.30;;;;;;6253856;28;20231;-66
2022/02/08 11:14:29;;;;;;;3.40;0.70;;;32.40;15.40;;;;;;6223580;28;20232;-71
2022/02/08 11:21:20;;;;;;;1.63;0.43;;;32.40;14.60;;;;;;6227501;28;20224;-68
2022/02/08 11:24:29;;;;;;;2.08;0.70;;;31.00;15.10;;;;;;6226827;28;20232;-67
2022/02/08 11:27:38;;;;;;;3.23;0.80;;;29.30;15.50;;;;;;6227241;28;20248;-68
2022/02/08 11:30:48;;;;;;;1.50;0.53;;;29.00;16.00;;;;;;6226653;28;20239;-67
2022/02/08 11:38:57;;;;;;;2.30;0.83;;;28.20;15.80;;;;;;6226926;28;20568;-67
2022/02/08 11:48:19;;;;;;;3.50;1.00;;;27.10;17.90;;;;;;6175991;28;20242;-67
2022/02/08 11:51:41;;;;;;;4.20;0.83;;;27.90;16.80;;;;;;6230363;28;20226;-68
2022/02/08 11:55:15;;;;;;;3.20;0.60;;;29.30;16.60;;;;;;6230314;28;20431;-68
2022/02/08 11:58:29;;;;;;;2.97;1.08;;;30.90;15.00;;;;;;6226015;28;20239;-67
2022/02/08 12:01:47;;;;;;;1.27;0.70;;;30.50;14.90;;;;;;6225691;28;20241;-67
2022/02/08 12:05:04;;;;;;;1.93;0.50;;;29.60;15.40;;;;;;6225925;28;20231;-67
2022/02/08 12:08:13;;;;;;;1.47;0.50;;;29.60;15.60;;;;;;6225766;28;20670;-67
2022/02/08 12:11:32;;;;;;;2.43;0.80;;;29.70;15.60;;;;;;6225869;28;20258;-68
2022/02/08 12:28:51;;;;;;;3.92;0.70;;;31.80;14.80;;;;;;6201636;28;20319;-66
2022/02/08 12:31:59;;;;;;;2.63;0.77;;;32.00;14.30;;;;;;6201149;28;20233;-66
2022/02/08 12:49:18;;;;;;;2.95;0.50;;;34.80;13.50;;;;;;6223921;28;20568;-65
2022/02/08 12:56:06;;;;;;;2.25;0.93;;;34.40;13.00;;;;;;6226037;28;20243;-65
2022/02/08 12:59:21;;;;;;;1.00;0.50;;;34.30;13.30;;;;;;6248084;28;20232;-65
2022/02/08 13:02:37;;;;;;;1.75;1.00;;;33.90;13.10;;;;;;6249051;28;20251;-65
2022/02/08 13:06:21;;;;;;;2.70;0.55;;;33.20;13.30;;;;;;6249636;28;20234;-65
2022/02/08 13:20:05;;;;;;;1.90;0.70;;;33.50;13.60;;;;;;6250574;28;20290;-64
2022/02/08 14:03:50;;;;;;;2.03;0.60;;;29.40;15.80;;;;;;6252833;28;20234;-63
2022/02/08 14:07:04;;;;;;;2.50;2.03;;;27.10;17.30;;;;;;6251229;28;20232;-62
2022/02/08 14:10:45;;;;;;;1.57;0.80;;;25.90;18.50;;;;;;6253058;28;20891;-62
2022/02/08 14:14:30;;;;;;;2.13;0.70;;;25.00;18.90;;;;;;6252401;28;20240;-63
2022/02/08 14:17:53;;;;;;;2.10;0.60;;;23.90;20.00;;;;;;6252786;28;20238;-64
2022/02/08 14:21:13;;;;;;;2.87;0.80;;;22.80;20.90;;;;;;6252913;28;20209;-64
2022/02/08 14:24:20;;;;;;;1.57;0.80;;;22.00;21.60;;;;;;6252238;28;20563;-65
2022/02/08 14:30:50;;;;;;;3.90;0.87;;;19.30;23.50;;;;;;6252391;28;20232;-63
2022/02/08 14:34:16;;;;;;;2.27;0.87;;;18.20;24.80;;;;;;6252427;28;20245;-63
2022/02/08 14:58:53;;;;;;;1.57;0.63;;;14.20;30.30;;;;;;6235006;28;20535;-65
2022/02/08 15:08:27;;;;;;;1.10;0.53;;;13.70;32.20;;;;;;6226787;28;20869;-65
2022/02/08 15:11:43;;;;;;;1.70;1.10;;;13.50;32.40;;;;;;6227131;28;20476;-64
2022/02/08 15:14:50;;;;;;;2.00;0.67;;;13.30;32.80;;;;;;6226460;28;20471;-65
2022/02/08 15:17:53;;;;;;;0.93;0.70;;;13.20;33.20;;;;;;6226611;28;20732;-64
2022/02/08 15:20:58;;;;;;;1.25;0.70;;;13.10;33.60;;;;;;6225887;28;20442;-64
2022/02/08 15:24:10;;;;;;;6.57;0.97;;;13.20;33.80;;;;;;6226972;28;20237;-65
2022/02/08 15:27:33;;;;;;;3.43;0.80;;;13.10;34.00;;;;;;6227130;28;20476;-66
2022/02/08 15:30:36;;;;;;;1.97;0.90;;;12.90;34.40;;;;;;6226322;28;20472;-67
2022/02/08 15:33:40;;;;;;;2.33;0.80;;;12.80;35.20;;;;;;6225018;28;20487;-66
2022/02/08 15:36:44;;;;;;;0.77;0.67;;;12.80;35.10;;;;;;6225109;28;20467;-64
2022/02/08 15:39:50;;;;;;;1.90;0.80;;;12.70;35.40;;;;;;6225042;28;20487;-64
2022/02/08 15:42:53;;;;;;;0.67;0.60;;;12.60;35.80;;;;;;6224514;28;20815;-64
2022/02/08 15:46:01;;;;;;;1.70;0.80;;;12.50;36.00;;;;;;6236012;28;20505;-65
2022/02/08 15:49:04;;;;;;;4.60;1.60;;;12.40;36.40;;;;;;6250829;28;20482;-64
2022/02/08 15:52:17;;;;;;;1.63;0.93;;;12.30;36.70;;;;;;6250426;28;20479;-63
2022/02/08 15:55:33;;;;;;;0.90;0.80;;;12.20;37.20;;;;;;6249075;28;20475;-65
2022/02/08 16:08:56;;;;;;;4.60;1.47;;;11.90;35.70;;;;;;6250196;28;20474;-65
2022/02/08 16:12:27;;;;;;;6.13;2.30;;;11.80;35.50;;;;;;6250569;28;20459;-65
2022/02/08 16:15:41;;;;;;;8.97;1.83;;;11.70;36.00;;;;;;6250389;28;20467;-65
2022/02/08 16:18:51;;;;;;;4.70;2.00;;;11.70;35.60;;;;;;6250109;28;20838;-65
2022/02/08 16:25:24;;;;;;;4.43;2.20;;;11.50;33.90;;;;;;6247714;28;20486;-65
2022/02/08 16:28:46;;;;;;;6.17;2.43;;;11.40;34.40;;;;;;6249908;28;20471;-66
2022/02/08 16:49:09;;;;;;;8.77;3.90;;;11.00;34.70;;;;;;6237093;28;20475;-64
2022/02/08 16:52:40;;;;;;;7.53;3.57;;;11.00;35.50;;;;;;6249500;28;20479;-64
2022/02/08 16:55:49;;;;;;;5.60;3.60;;;10.90;35.40;;;;;;6243218;28;20466;-65
2022/02/08 16:58:56;;;;;;;5.20;3.70;;;10.90;36.60;;;;;;6255068;28;20506;-68
2022/02/08 17:02:02;;;;;;;10.77;4.10;;;10.80;37.50;;;;;;6258054;28;20482;-66
2022/02/08 17:05:06;;;;;;;15.40;4.87;;;10.80;38.10;;;;;;6234116;28;20475;-65
2022/02/08 17:08:09;;;;;;;6.30;3.87;;;10.80;38.70;;;;;;6227420;28;20483;-64
2022/02/08 17:11:18;;;;;;;11.10;4.40;;;10.80;39.00;;;;;;6228460;28;20792;-63
2022/02/08 17:14:31;;;;;;;9.00;3.60;;;10.70;39.20;;;;;;6251039;28;20844;-62
2022/02/08 17:34:50;;;;;;;6.43;5.47;;;10.10;41.60;;;;;;6253966;28;20478;-62
2022/02/08 17:48:16;;;;;;;8.00;5.23;;;9.70;43.50;;;;;;6154502;28;20919;-64
2022/02/08 17:51:19;;;;;;;12.63;6.23;;;9.50;44.10;;;;;;6253949;28;20787;-64
2022/02/08 17:54:42;;;;;;;10.70;5.70;;;9.50;44.60;;;;;;6254272;28;20525;-64
2022/02/08 17:57:45;;;;;;;15.77;7.07;;;9.40;45.20;;;;;;6251144;28;20471;-64
2022/02/08 18:00:49;;;;;;;16.63;7.10;;;9.20;45.60;;;;;;6253403;28;20480;-64
2022/02/08 18:03:54;;;;;;;16.47;7.37;;;9.10;46.30;;;;;;6244906;28;20472;-66
2022/02/08 18:06:59;;;;;;;10.10;6.47;;;9.10;46.90;;;;;;6228165;28;20468;-65
2022/02/08 18:10:02;;;;;;;13.50;6.13;;;9.10;47.00;;;;;;6228808;28;20487;-64
2022/02/08 18:13:13;;;;;;;8.83;6.43;;;9.00;46.70;;;;;;6241296;28;20479;-64
2022/02/08 18:16:21;;;;;;;9.13;6.40;;;8.90;47.40;;;;;;6253594;28;20482;-64
2022/02/08 18:19:31;;;;;;;11.27;7.10;;;8.80;47.80;;;;;;6253989;28;20474;-63
2022/02/08 18:22:49;;;;;;;10.40;6.60;;;8.80;48.40;;;;;;6253283;28;20529;-63
2022/02/08 18:27:04;;;;;;;10.03;7.00;;;8.70;48.30;;;;;;6253256;28;20613;-65
2022/02/08 19:09:49;;;;;;;12.47;6.73;;;7.70;53.00;;;;;;6217748;28;20809;-61
2022/02/08 19:13:23;;;;;;;10.97;7.63;;;7.60;53.50;;;;;;6249222;28;20482;-62
2022/02/08 19:16:37;;;;;;;11.63;6.70;;;7.50;53.40;;;;;;6252564;28;20478;-62
2022/02/08 19:19:49;;;;;;;13.53;7.07;;;7.50;53.40;;;;;;6251833;28;20471;-61
2022/02/08 19:22:53;;;;;;;10.37;7.23;;;7.40;53.40;;;;;;6252218;28;20486;-61
2022/02/08 19:25:57;;;;;;;13.70;7.80;;;7.40;53.80;;;;;;6252052;28;20477;-61
2022/02/08 19:29:00;;;;;;;17.93;9.30;;;7.30;53.80;;;;;;6252264;28;20467;-61
2022/02/08 19:32:07;;;;;;;10.80;8.33;;;7.20;54.40;;;;;;6251275;28;20590;-61
2022/02/08 19:35:15;;;;;;;9.13;7.47;;;7.20;54.80;;;;;;6251686;28;20486;-62
2022/02/08 19:38:21;;;;;;;10.53;7.70;;;7.20;54.60;;;;;;6250950;28;20478;-61
2022/02/08 19:41:25;;;;;;;12.37;8.50;;;7.10;54.60;;;;;;6251326;28;20497;-61
2022/02/08 19:44:28;;;;;;;11.03;6.33;;;7.10;55.20;;;;;;6250950;28;20611;-62
2022/02/08 19:47:32;;;;;;;11.73;7.27;;;7.20;55.30;;;;;;6251698;28;20558;-62
2022/02/08 19:50:36;;;;;;;10.50;7.47;;;7.20;55.60;;;;;;6251296;28;20864;-62
2022/02/08 19:53:40;;;;;;;15.40;6.77;;;7.10;55.90;;;;;;6251541;28;20561;-62
2022/02/08 19:56:49;;;;;;;9.17;7.57;;;7.10;56.00;;;;;;6250827;28;20467;-61
2022/02/08 19:59:53;;;;;;;9.40;8.40;;;7.00;56.60;;;;;;6251916;28;20443;-62
2022/02/08 20:02:59;;;;;;;10.43;7.07;;;6.90;57.00;;;;;;6251500;28;20479;-62
2022/02/08 20:06:02;;;;;;;15.23;7.80;;;7.00;57.00;;;;;;6241839;28;20836;-62
2022/02/08 20:09:07;;;;;;;17.83;7.43;;;7.00;56.90;;;;;;6251418;28;20458;-62
2022/02/08 20:12:11;;;;;;;13.13;7.80;;;7.00;57.30;;;;;;6246115;28;20459;-62
2022/02/08 20:15:26;;;;;;;9.83;6.80;;;7.00;57.30;;;;;;6229006;28;20479;-61
2022/02/08 20:18:29;;;;;;;10.17;7.10;;;7.00;57.50;;;;;;6227487;28;20475;-62
2022/02/08 20:21:34;;;;;;;9.23;6.87;;;6.80;57.70;;;;;;6227142;28;20484;-61
2022/02/08 20:24:37;;;;;;;8.53;6.20;;;6.80;58.00;;;;;;6226666;28;20840;-63
2022/02/08 20:27:50;;;;;;;11.33;6.60;;;6.80;58.40;;;;;;6226132;28;20479;-63
2022/02/08 20:30:55;;;;;;;8.37;6.40;;;6.80;58.80;;;;;;6226098;28;20479;-63
2022/02/08 20:33:58;;;;;;;13.10;9.07;;;6.80;59.10;;;;;;6226171;28;20476;-62
2022/02/08 20:37:01;;;;;;;11.10;8.60;;;6.80;59.50;;;;;;6225917;28;20500;-62
2022/02/08 20:40:06;;;;;;;11.83;7.60;;;6.60;60.20;;;;;;6226210;28;20522;-63
2022/02/08 20:43:13;;;;;;;16.57;10.20;;;6.70;60.60;;;;;;6226146;28;20476;-62
2022/02/08 20:46:16;;;;;;;13.50;8.70;;;6.60;60.90;;;;;;6242940;28;20467;-62
2022/02/08 20:49:20;;;;;;;11.67;8.00;;;6.70;60.90;;;;;;6235376;28;20455;-63
2022/02/08 20:52:24;;;;;;;15.70;8.20;;;6.70;60.90;;;;;;6240569;28;20486;-63
2022/02/08 20:55:39;;;;;;;15.37;8.00;;;6.70;61.10;;;;;;6242120;28;20970;-62
2022/02/08 20:59:04;;;;;;;12.10;7.80;;;6.70;61.60;;;;;;6238623;28;20463;-62
2022/02/08 21:02:09;;;;;;;11.33;7.30;;;6.70;61.60;;;;;;6234008;28;20533;-64
2022/02/08 21:05:33;;;;;;;13.90;7.50;;;6.50;62.30;;;;;;6249785;28;20475;-64
2022/02/08 21:08:36;;;;;;;15.27;8.07;;;6.60;62.60;;;;;;6236504;28;20482;-64
2022/02/08 21:11:41;;;;;;;11.20;7.93;;;6.60;62.90;;;;;;6228663;28;20525;-64
2022/02/08 21:14:45;;;;;;;14.83;8.87;;;6.60;63.20;;;;;;6249939;28;20487;-63
2022/02/08 21:17:48;;;;;;;15.30;8.60;;;6.60;63.40;;;;;;6249512;28;20470;-62
2022/02/08 21:20:51;;;;;;;12.10;8.40;;;6.50;63.70;;;;;;6236582;28;20467;-64
2022/02/08 21:23:56;;;;;;;13.50;8.10;;;6.40;63.50;;;;;;6246972;28;20550;-64
2022/02/08 21:27:02;;;;;;;12.93;8.50;;;6.40;62.80;;;;;;6235221;28;20822;-63
2022/02/08 21:30:24;;;;;;;12.97;8.27;;;6.40;63.50;;;;;;6241916;28;20452;-63
2022/02/08 21:43:57;;;;;;;15.97;7.80;;;6.30;64.20;;;;;;6229291;28;20472;-65
2022/02/08 21:54:01;;;;;;;28.97;15.87;;;6.30;64.00;;;;;;6228177;28;20771;-65
2022/02/08 21:57:06;;;;;;;21.90;12.07;;;6.20;64.20;;;;;;6240775;28;20777;-66
2022/02/08 22:00:11;;;;;;;15.50;9.90;;;6.20;64.40;;;;;;6253677;28;20471;-64
2022/02/08 22:03:16;;;;;;;13.53;8.37;;;6.20;64.40;;;;;;6253196;28;20462;-66
2022/02/08 22:06:19;;;;;;;11.70;8.77;;;6.20;64.70;;;;;;6253586;28;20471;-66
2022/02/08 22:09:25;;;;;;;17.70;8.57;;;6.20;64.70;;;;;;6253676;28;20475;-66
2022/02/08 22:16:03;;;;;;;12.17;8.63;;;6.20;65.00;;;;;;6215835;28;20480;-64
2022/02/08 22:19:17;;;;;;;10.73;7.20;;;6.20;65.40;;;;;;6228768;28;20510;-67